sensor_id;sensor_type;location;lat;lon;timestamp;P1;durP1;ratioP1;P2;durP2;ratioP2
73938;SDS011;62291;47.554;8.504;2022-12-18T00:00:58;75.30;;;40.30;;
73938;SDS011;62291;47.554;8.504;2022-12-18T00:03:23;71.72;;;38.38;;
73938;SDS011;62291;47.554;8.504;2022-12-18T00:05:50;73.07;;;38.30;;
73938;SDS011;62291;47.554;8.504;2022-12-18T00:08:16;74.15;;;38.03;;
73938;SDS011;62291;47.554;8.504;2022-12-18T00:10:43;75.03;;;40.28;;
73938;SDS011;62291;47.554;8.504;2022-12-18T00:13:10;78.90;;;41.25;;
73938;SDS011;62291;47.554;8.504;2022-12-18T00:15:37;78.90;;;40.28;;
73938;SDS011;62291;47.554;8.504;2022-12-18T00:18:04;80.30;;;41.60;;
73938;SDS011;62291;47.554;8.504;2022-12-18T00:20:30;77.20;;;42.30;;
73938;SDS011;62291;47.554;8.504;2022-12-18T00:23:00;78.45;;;41.50;;
73938;SDS011;62291;47.554;8.504;2022-12-18T00:25:26;82.18;;;42.08;;
73938;SDS011;62291;47.554;8.504;2022-12-18T00:27:51;83.35;;;43.10;;
73938;SDS011;62291;47.554;8.504;2022-12-18T00:30:17;86.65;;;43.10;;
73938;SDS011;62291;47.554;8.504;2022-12-18T00:32:43;84.18;;;43.60;;
73938;SDS011;62291;47.554;8.504;2022-12-18T00:35:09;82.07;;;42.78;;
73938;SDS011;62291;47.554;8.504;2022-12-18T00:37:35;86.40;;;43.88;;
73938;SDS011;62291;47.554;8.504;2022-12-18T00:40:01;87.22;;;44.35;;
73938;SDS011;62291;47.554;8.504;2022-12-18T00:42:26;83.10;;;42.40;;
73938;SDS011;62291;47.554;8.504;2022-12-18T00:45:11;83.97;;;44.03;;
73938;SDS011;62291;47.554;8.504;2022-12-18T00:47:36;88.90;;;44.80;;
73938;SDS011;62291;47.554;8.504;2022-12-18T00:50:02;90.55;;;46.25;;
73938;SDS011;62291;47.554;8.504;2022-12-18T00:52:28;91.90;;;46.03;;
73938;SDS011;62291;47.554;8.504;2022-12-18T00:54:54;91.13;;;45.38;;
73938;SDS011;62291;47.554;8.504;2022-12-18T00:57:19;92.10;;;46.17;;
73938;SDS011;62291;47.554;8.504;2022-12-18T00:59:45;88.88;;;44.30;;
73938;SDS011;62291;47.554;8.504;2022-12-18T01:02:11;88.15;;;46.28;;
73938;SDS011;62291;47.554;8.504;2022-12-18T01:04:36;94.05;;;46.30;;
73938;SDS011;62291;47.554;8.504;2022-12-18T01:07:02;89.82;;;46.50;;
73938;SDS011;62291;47.554;8.504;2022-12-18T01:09:28;93.43;;;45.45;;
73938;SDS011;62291;47.554;8.504;2022-12-18T01:11:53;94.88;;;46.55;;
73938;SDS011;62291;47.554;8.504;2022-12-18T01:14:19;95.55;;;45.42;;
73938;SDS011;62291;47.554;8.504;2022-12-18T01:16:45;94.70;;;45.92;;
73938;SDS011;62291;47.554;8.504;2022-12-18T01:19:10;89.30;;;46.25;;
73938;SDS011;62291;47.554;8.504;2022-12-18T01:21:36;95.40;;;45.95;;
73938;SDS011;62291;47.554;8.504;2022-12-18T01:24:02;91.13;;;44.47;;
73938;SDS011;62291;47.554;8.504;2022-12-18T01:26:28;98.03;;;45.70;;
73938;SDS011;62291;47.554;8.504;2022-12-18T01:28:55;86.00;;;44.75;;
73938;SDS011;62291;47.554;8.504;2022-12-18T01:31:23;91.88;;;45.40;;
73938;SDS011;62291;47.554;8.504;2022-12-18T01:33:50;91.35;;;46.70;;
73938;SDS011;62291;47.554;8.504;2022-12-18T01:36:21;100.65;;;49.85;;
73938;SDS011;62291;47.554;8.504;2022-12-18T01:38:52;98.45;;;47.83;;
73938;SDS011;62291;47.554;8.504;2022-12-18T01:41:22;102.47;;;49.00;;
73938;SDS011;62291;47.554;8.504;2022-12-18T01:43:51;99.95;;;48.92;;
73938;SDS011;62291;47.554;8.504;2022-12-18T01:46:25;97.75;;;46.20;;
73938;SDS011;62291;47.554;8.504;2022-12-18T01:48:53;99.55;;;48.40;;
73938;SDS011;62291;47.554;8.504;2022-12-18T01:51:21;94.55;;;46.28;;
73938;SDS011;62291;47.554;8.504;2022-12-18T01:53:47;97.13;;;47.55;;
73938;SDS011;62291;47.554;8.504;2022-12-18T01:56:14;101.82;;;47.92;;
73938;SDS011;62291;47.554;8.504;2022-12-18T01:58:51;95.28;;;46.97;;
73938;SDS011;62291;47.554;8.504;2022-12-18T02:01:28;95.38;;;47.05;;
73938;SDS011;62291;47.554;8.504;2022-12-18T02:03:56;104.63;;;47.83;;
73938;SDS011;62291;47.554;8.504;2022-12-18T02:06:39;104.18;;;46.28;;
73938;SDS011;62291;47.554;8.504;2022-12-18T02:14:28;105.88;;;49.30;;
73938;SDS011;62291;47.554;8.504;2022-12-18T02:17:05;104.05;;;47.30;;
73938;SDS011;62291;47.554;8.504;2022-12-18T02:22:29;101.07;;;47.95;;
73938;SDS011;62291;47.554;8.504;2022-12-18T02:27:36;107.50;;;48.55;;
73938;SDS011;62291;47.554;8.504;2022-12-18T02:30:03;103.95;;;48.33;;
73938;SDS011;62291;47.554;8.504;2022-12-18T02:32:32;100.75;;;46.22;;
73938;SDS011;62291;47.554;8.504;2022-12-18T02:35:02;97.53;;;46.97;;
73938;SDS011;62291;47.554;8.504;2022-12-18T02:37:30;102.50;;;47.58;;
73938;SDS011;62291;47.554;8.504;2022-12-18T02:39:59;102.70;;;47.05;;
73938;SDS011;62291;47.554;8.504;2022-12-18T02:42:27;105.75;;;47.42;;
73938;SDS011;62291;47.554;8.504;2022-12-18T02:44:53;102.50;;;45.92;;
73938;SDS011;62291;47.554;8.504;2022-12-18T02:47:21;102.88;;;45.30;;
73938;SDS011;62291;47.554;8.504;2022-12-18T02:55:22;106.45;;;45.10;;
73938;SDS011;62291;47.554;8.504;2022-12-18T02:58:00;116.60;;;49.15;;
73938;SDS011;62291;47.554;8.504;2022-12-18T03:00:38;108.43;;;49.20;;
73938;SDS011;62291;47.554;8.504;2022-12-18T03:05:41;122.15;;;47.53;;
73938;SDS011;62291;47.554;8.504;2022-12-18T03:08:14;112.63;;;48.03;;
73938;SDS011;62291;47.554;8.504;2022-12-18T03:11:06;111.50;;;46.63;;
73938;SDS011;62291;47.554;8.504;2022-12-18T03:16:28;104.30;;;44.90;;
73938;SDS011;62291;47.554;8.504;2022-12-18T03:19:01;108.93;;;48.28;;
73938;SDS011;62291;47.554;8.504;2022-12-18T03:21:33;110.38;;;45.22;;
73938;SDS011;62291;47.554;8.504;2022-12-18T03:24:07;116.45;;;47.42;;
73938;SDS011;62291;47.554;8.504;2022-12-18T03:26:34;115.60;;;47.63;;
73938;SDS011;62291;47.554;8.504;2022-12-18T03:29:06;119.75;;;48.80;;
73938;SDS011;62291;47.554;8.504;2022-12-18T03:31:37;111.68;;;47.80;;
73938;SDS011;62291;47.554;8.504;2022-12-18T03:34:09;115.95;;;48.40;;
73938;SDS011;62291;47.554;8.504;2022-12-18T03:36:40;106.18;;;46.55;;
73938;SDS011;62291;47.554;8.504;2022-12-18T03:39:06;113.18;;;48.70;;
73938;SDS011;62291;47.554;8.504;2022-12-18T03:41:40;133.25;;;49.78;;
73938;SDS011;62291;47.554;8.504;2022-12-18T03:47:01;114.13;;;47.90;;
73938;SDS011;62291;47.554;8.504;2022-12-18T03:52:22;117.38;;;48.97;;
73938;SDS011;62291;47.554;8.504;2022-12-18T03:54:57;118.75;;;47.33;;
73938;SDS011;62291;47.554;8.504;2022-12-18T03:57:25;116.15;;;49.55;;
73938;SDS011;62291;47.554;8.504;2022-12-18T04:00:02;116.68;;;48.25;;
73938;SDS011;62291;47.554;8.504;2022-12-18T04:02:33;115.75;;;47.67;;
73938;SDS011;62291;47.554;8.504;2022-12-18T04:05:03;118.88;;;49.40;;
73938;SDS011;62291;47.554;8.504;2022-12-18T04:07:32;117.70;;;49.03;;
73938;SDS011;62291;47.554;8.504;2022-12-18T04:09:58;117.68;;;48.22;;
73938;SDS011;62291;47.554;8.504;2022-12-18T04:12:26;109.88;;;46.25;;
73938;SDS011;62291;47.554;8.504;2022-12-18T04:14:54;117.32;;;48.75;;
73938;SDS011;62291;47.554;8.504;2022-12-18T04:17:20;121.32;;;49.08;;
73938;SDS011;62291;47.554;8.504;2022-12-18T04:19:47;118.85;;;48.90;;
73938;SDS011;62291;47.554;8.504;2022-12-18T04:22:13;119.13;;;47.75;;
73938;SDS011;62291;47.554;8.504;2022-12-18T04:24:39;116.80;;;48.47;;
73938;SDS011;62291;47.554;8.504;2022-12-18T04:27:06;109.53;;;48.50;;
73938;SDS011;62291;47.554;8.504;2022-12-18T04:29:31;122.18;;;50.40;;
73938;SDS011;62291;47.554;8.504;2022-12-18T04:31:57;122.25;;;47.55;;
73938;SDS011;62291;47.554;8.504;2022-12-18T04:34:23;122.97;;;49.15;;
73938;SDS011;62291;47.554;8.504;2022-12-18T04:36:49;118.85;;;48.15;;
73938;SDS011;62291;47.554;8.504;2022-12-18T04:39:14;125.25;;;48.88;;
73938;SDS011;62291;47.554;8.504;2022-12-18T04:41:40;120.28;;;48.67;;
73938;SDS011;62291;47.554;8.504;2022-12-18T04:44:06;126.82;;;50.55;;
73938;SDS011;62291;47.554;8.504;2022-12-18T04:46:32;126.50;;;47.63;;
73938;SDS011;62291;47.554;8.504;2022-12-18T04:48:57;131.73;;;47.05;;
73938;SDS011;62291;47.554;8.504;2022-12-18T04:51:23;128.27;;;49.50;;
73938;SDS011;62291;47.554;8.504;2022-12-18T04:53:49;125.05;;;49.28;;
73938;SDS011;62291;47.554;8.504;2022-12-18T04:56:15;120.55;;;47.50;;
73938;SDS011;62291;47.554;8.504;2022-12-18T04:58:41;127.68;;;50.08;;
73938;SDS011;62291;47.554;8.504;2022-12-18T05:01:09;123.22;;;47.47;;
73938;SDS011;62291;47.554;8.504;2022-12-18T05:03:35;129.43;;;48.85;;
73938;SDS011;62291;47.554;8.504;2022-12-18T05:06:01;122.82;;;46.72;;
73938;SDS011;62291;47.554;8.504;2022-12-18T05:08:28;126.18;;;47.80;;
73938;SDS011;62291;47.554;8.504;2022-12-18T05:11:00;125.85;;;47.95;;
73938;SDS011;62291;47.554;8.504;2022-12-18T05:13:31;136.20;;;50.97;;
73938;SDS011;62291;47.554;8.504;2022-12-18T05:15:57;129.65;;;49.15;;
73938;SDS011;62291;47.554;8.504;2022-12-18T05:18:23;123.57;;;47.25;;
73938;SDS011;62291;47.554;8.504;2022-12-18T05:20:50;126.47;;;48.33;;
73938;SDS011;62291;47.554;8.504;2022-12-18T05:23:16;125.00;;;49.90;;
73938;SDS011;62291;47.554;8.504;2022-12-18T05:25:46;132.68;;;50.33;;
73938;SDS011;62291;47.554;8.504;2022-12-18T05:28:15;122.40;;;47.42;;
73938;SDS011;62291;47.554;8.504;2022-12-18T05:30:41;126.88;;;47.90;;
73938;SDS011;62291;47.554;8.504;2022-12-18T05:33:07;128.20;;;49.95;;
73938;SDS011;62291;47.554;8.504;2022-12-18T05:35:33;125.85;;;48.45;;
73938;SDS011;62291;47.554;8.504;2022-12-18T05:37:59;128.02;;;49.70;;
73938;SDS011;62291;47.554;8.504;2022-12-18T05:40:24;125.68;;;48.78;;
73938;SDS011;62291;47.554;8.504;2022-12-18T05:42:50;120.60;;;47.25;;
73938;SDS011;62291;47.554;8.504;2022-12-18T05:45:16;121.35;;;48.70;;
73938;SDS011;62291;47.554;8.504;2022-12-18T05:47:42;128.93;;;49.30;;
73938;SDS011;62291;47.554;8.504;2022-12-18T05:50:08;113.03;;;46.72;;
73938;SDS011;62291;47.554;8.504;2022-12-18T05:52:33;129.75;;;49.67;;
73938;SDS011;62291;47.554;8.504;2022-12-18T05:54:59;127.50;;;49.08;;
73938;SDS011;62291;47.554;8.504;2022-12-18T05:57:25;124.00;;;48.85;;
73938;SDS011;62291;47.554;8.504;2022-12-18T05:59:51;120.63;;;48.53;;
73938;SDS011;62291;47.554;8.504;2022-12-18T06:02:16;130.48;;;49.92;;
73938;SDS011;62291;47.554;8.504;2022-12-18T06:04:42;120.90;;;48.58;;
73938;SDS011;62291;47.554;8.504;2022-12-18T06:07:08;131.43;;;50.47;;
73938;SDS011;62291;47.554;8.504;2022-12-18T06:09:33;127.70;;;50.60;;
73938;SDS011;62291;47.554;8.504;2022-12-18T06:11:59;116.53;;;46.42;;
73938;SDS011;62291;47.554;8.504;2022-12-18T06:14:25;117.13;;;48.42;;
73938;SDS011;62291;47.554;8.504;2022-12-18T06:16:51;118.13;;;47.42;;
73938;SDS011;62291;47.554;8.504;2022-12-18T06:19:17;111.38;;;45.65;;
73938;SDS011;62291;47.554;8.504;2022-12-18T06:21:43;114.93;;;46.00;;
73938;SDS011;62291;47.554;8.504;2022-12-18T06:24:08;116.45;;;47.60;;
73938;SDS011;62291;47.554;8.504;2022-12-18T06:26:36;119.63;;;47.72;;
73938;SDS011;62291;47.554;8.504;2022-12-18T06:29:03;114.30;;;47.97;;
73938;SDS011;62291;47.554;8.504;2022-12-18T06:31:29;112.10;;;46.67;;
73938;SDS011;62291;47.554;8.504;2022-12-18T06:33:55;112.78;;;47.78;;
73938;SDS011;62291;47.554;8.504;2022-12-18T06:36:21;113.40;;;45.58;;
73938;SDS011;62291;47.554;8.504;2022-12-18T06:38:47;114.28;;;46.50;;
73938;SDS011;62291;47.554;8.504;2022-12-18T06:41:13;121.13;;;48.17;;
73938;SDS011;62291;47.554;8.504;2022-12-18T06:43:44;122.70;;;49.45;;
73938;SDS011;62291;47.554;8.504;2022-12-18T06:46:10;118.07;;;46.45;;
73938;SDS011;62291;47.554;8.504;2022-12-18T06:48:36;114.95;;;47.00;;
73938;SDS011;62291;47.554;8.504;2022-12-18T06:51:02;116.38;;;47.35;;
73938;SDS011;62291;47.554;8.504;2022-12-18T06:53:28;113.13;;;47.67;;
73938;SDS011;62291;47.554;8.504;2022-12-18T06:56:01;116.72;;;48.83;;
73938;SDS011;62291;47.554;8.504;2022-12-18T06:58:28;117.63;;;46.97;;
73938;SDS011;62291;47.554;8.504;2022-12-18T07:00:59;119.85;;;47.38;;
73938;SDS011;62291;47.554;8.504;2022-12-18T07:03:28;125.18;;;46.60;;
73938;SDS011;62291;47.554;8.504;2022-12-18T07:05:54;116.38;;;46.88;;
73938;SDS011;62291;47.554;8.504;2022-12-18T07:08:20;120.53;;;47.13;;
73938;SDS011;62291;47.554;8.504;2022-12-18T07:10:46;119.03;;;48.80;;
73938;SDS011;62291;47.554;8.504;2022-12-18T07:13:13;119.60;;;49.92;;
73938;SDS011;62291;47.554;8.504;2022-12-18T07:15:40;122.07;;;50.00;;
73938;SDS011;62291;47.554;8.504;2022-12-18T07:18:06;124.53;;;48.03;;
73938;SDS011;62291;47.554;8.504;2022-12-18T07:20:31;120.97;;;46.85;;
73938;SDS011;62291;47.554;8.504;2022-12-18T07:22:57;118.57;;;47.50;;
73938;SDS011;62291;47.554;8.504;2022-12-18T07:25:23;119.18;;;48.15;;
73938;SDS011;62291;47.554;8.504;2022-12-18T07:27:48;127.95;;;49.13;;
73938;SDS011;62291;47.554;8.504;2022-12-18T07:30:14;125.88;;;49.67;;
73938;SDS011;62291;47.554;8.504;2022-12-18T07:32:40;109.75;;;46.45;;
73938;SDS011;62291;47.554;8.504;2022-12-18T07:35:05;112.53;;;46.13;;
73938;SDS011;62291;47.554;8.504;2022-12-18T07:37:31;112.55;;;46.17;;
73938;SDS011;62291;47.554;8.504;2022-12-18T07:39:57;114.97;;;46.58;;
73938;SDS011;62291;47.554;8.504;2022-12-18T07:42:22;113.53;;;45.33;;
73938;SDS011;62291;47.554;8.504;2022-12-18T07:45:00;117.07;;;46.15;;
73938;SDS011;62291;47.554;8.504;2022-12-18T07:47:27;113.85;;;46.88;;
73938;SDS011;62291;47.554;8.504;2022-12-18T07:49:53;115.75;;;46.70;;
73938;SDS011;62291;47.554;8.504;2022-12-18T07:52:19;116.18;;;47.17;;
73938;SDS011;62291;47.554;8.504;2022-12-18T07:54:45;125.45;;;50.35;;
73938;SDS011;62291;47.554;8.504;2022-12-18T07:57:12;116.60;;;49.97;;
73938;SDS011;62291;47.554;8.504;2022-12-18T07:59:39;117.43;;;46.97;;
73938;SDS011;62291;47.554;8.504;2022-12-18T08:02:05;116.13;;;46.58;;
73938;SDS011;62291;47.554;8.504;2022-12-18T08:04:31;117.75;;;47.72;;
73938;SDS011;62291;47.554;8.504;2022-12-18T08:06:56;118.82;;;46.90;;
73938;SDS011;62291;47.554;8.504;2022-12-18T08:09:22;112.50;;;46.78;;
73938;SDS011;62291;47.554;8.504;2022-12-18T08:11:48;121.03;;;48.50;;
73938;SDS011;62291;47.554;8.504;2022-12-18T08:14:13;109.63;;;46.58;;
73938;SDS011;62291;47.554;8.504;2022-12-18T08:16:39;119.93;;;47.15;;
73938;SDS011;62291;47.554;8.504;2022-12-18T08:19:05;110.93;;;44.22;;
73938;SDS011;62291;47.554;8.504;2022-12-18T08:21:31;116.50;;;46.78;;
73938;SDS011;62291;47.554;8.504;2022-12-18T08:23:57;110.55;;;45.08;;
73938;SDS011;62291;47.554;8.504;2022-12-18T08:26:25;118.40;;;46.63;;
73938;SDS011;62291;47.554;8.504;2022-12-18T08:28:54;111.60;;;46.45;;
73938;SDS011;62291;47.554;8.504;2022-12-18T08:31:21;117.93;;;46.92;;
73938;SDS011;62291;47.554;8.504;2022-12-18T08:33:50;107.95;;;44.85;;
73938;SDS011;62291;47.554;8.504;2022-12-18T08:36:17;111.22;;;44.90;;
73938;SDS011;62291;47.554;8.504;2022-12-18T08:38:44;109.18;;;45.22;;
73938;SDS011;62291;47.554;8.504;2022-12-18T08:41:11;118.78;;;47.80;;
73938;SDS011;62291;47.554;8.504;2022-12-18T08:43:38;112.88;;;46.22;;
73938;SDS011;62291;47.554;8.504;2022-12-18T08:46:23;111.60;;;44.13;;
73938;SDS011;62291;47.554;8.504;2022-12-18T08:48:50;113.53;;;47.08;;
73938;SDS011;62291;47.554;8.504;2022-12-18T08:51:17;108.95;;;43.17;;
73938;SDS011;62291;47.554;8.504;2022-12-18T08:53:43;112.57;;;45.03;;
73938;SDS011;62291;47.554;8.504;2022-12-18T08:56:09;104.78;;;44.53;;
73938;SDS011;62291;47.554;8.504;2022-12-18T08:58:35;104.90;;;43.50;;
73938;SDS011;62291;47.554;8.504;2022-12-18T09:01:06;105.60;;;44.75;;
73938;SDS011;62291;47.554;8.504;2022-12-18T09:03:34;112.63;;;46.83;;
73938;SDS011;62291;47.554;8.504;2022-12-18T09:06:00;111.10;;;43.58;;
73938;SDS011;62291;47.554;8.504;2022-12-18T09:08:26;107.13;;;45.33;;
73938;SDS011;62291;47.554;8.504;2022-12-18T09:10:53;100.18;;;44.20;;
73938;SDS011;62291;47.554;8.504;2022-12-18T09:13:19;99.43;;;43.53;;
73938;SDS011;62291;47.554;8.504;2022-12-18T09:15:46;104.20;;;45.75;;
73938;SDS011;62291;47.554;8.504;2022-12-18T09:18:14;103.20;;;45.17;;
73938;SDS011;62291;47.554;8.504;2022-12-18T09:20:41;111.07;;;44.53;;
73938;SDS011;62291;47.554;8.504;2022-12-18T09:23:07;105.18;;;45.85;;
73938;SDS011;62291;47.554;8.504;2022-12-18T09:25:33;103.45;;;45.58;;
73938;SDS011;62291;47.554;8.504;2022-12-18T09:28:01;111.30;;;45.95;;
73938;SDS011;62291;47.554;8.504;2022-12-18T09:30:32;101.20;;;42.97;;
73938;SDS011;62291;47.554;8.504;2022-12-18T09:33:01;105.97;;;45.08;;
73938;SDS011;62291;47.554;8.504;2022-12-18T09:35:26;105.25;;;44.80;;
73938;SDS011;62291;47.554;8.504;2022-12-18T09:37:52;102.50;;;43.55;;
73938;SDS011;62291;47.554;8.504;2022-12-18T09:40:23;99.97;;;44.25;;
73938;SDS011;62291;47.554;8.504;2022-12-18T09:42:53;101.93;;;44.25;;
73938;SDS011;62291;47.554;8.504;2022-12-18T09:45:25;99.30;;;43.47;;
73938;SDS011;62291;47.554;8.504;2022-12-18T09:47:52;96.97;;;42.63;;
73938;SDS011;62291;47.554;8.504;2022-12-18T09:50:26;101.82;;;44.15;;
73938;SDS011;62291;47.554;8.504;2022-12-18T09:52:56;93.55;;;41.60;;
73938;SDS011;62291;47.554;8.504;2022-12-18T09:55:34;99.00;;;43.08;;
73938;SDS011;62291;47.554;8.504;2022-12-18T10:00:34;94.70;;;39.00;;
73938;SDS011;62291;47.554;8.504;2022-12-18T10:03:15;93.70;;;42.83;;
73938;SDS011;62291;47.554;8.504;2022-12-18T10:08:51;101.85;;;44.03;;
73938;SDS011;62291;47.554;8.504;2022-12-18T10:13:46;96.53;;;41.88;;
73938;SDS011;62291;47.554;8.504;2022-12-18T10:16:34;98.07;;;43.75;;
73938;SDS011;62291;47.554;8.504;2022-12-18T10:21:36;96.10;;;43.60;;
73938;SDS011;62291;47.554;8.504;2022-12-18T10:26:46;92.65;;;40.83;;
73938;SDS011;62291;47.554;8.504;2022-12-18T10:29:13;89.90;;;41.60;;
73938;SDS011;62291;47.554;8.504;2022-12-18T10:31:40;91.07;;;42.33;;
73938;SDS011;62291;47.554;8.504;2022-12-18T10:34:09;90.07;;;42.67;;
73938;SDS011;62291;47.554;8.504;2022-12-18T10:36:36;83.75;;;39.63;;
73938;SDS011;62291;47.554;8.504;2022-12-18T10:39:21;86.40;;;40.88;;
73938;SDS011;62291;47.554;8.504;2022-12-18T10:41:48;87.57;;;39.80;;
73938;SDS011;62291;47.554;8.504;2022-12-18T10:44:21;82.30;;;38.05;;
73938;SDS011;62291;47.554;8.504;2022-12-18T10:46:49;84.32;;;40.35;;
73938;SDS011;62291;47.554;8.504;2022-12-18T10:49:27;87.55;;;40.63;;
73938;SDS011;62291;47.554;8.504;2022-12-18T10:52:15;84.65;;;40.63;;
73938;SDS011;62291;47.554;8.504;2022-12-18T10:55:03;81.55;;;38.78;;
73938;SDS011;62291;47.554;8.504;2022-12-18T10:57:36;89.72;;;41.30;;
73938;SDS011;62291;47.554;8.504;2022-12-18T11:02:52;78.03;;;39.45;;
73938;SDS011;62291;47.554;8.504;2022-12-18T11:07:51;83.32;;;40.53;;
73938;SDS011;62291;47.554;8.504;2022-12-18T11:10:20;77.95;;;38.58;;
73938;SDS011;62291;47.554;8.504;2022-12-18T11:12:47;75.50;;;38.10;;
73938;SDS011;62291;47.554;8.504;2022-12-18T11:15:34;79.75;;;39.35;;
73938;SDS011;62291;47.554;8.504;2022-12-18T11:17:59;71.07;;;36.80;;
73938;SDS011;62291;47.554;8.504;2022-12-18T11:20:30;73.60;;;37.40;;
73938;SDS011;62291;47.554;8.504;2022-12-18T11:23:20;69.43;;;35.28;;
73938;SDS011;62291;47.554;8.504;2022-12-18T11:25:51;73.72;;;36.13;;
73938;SDS011;62291;47.554;8.504;2022-12-18T11:28:27;74.05;;;36.67;;
73938;SDS011;62291;47.554;8.504;2022-12-18T11:31:09;75.07;;;36.90;;
73938;SDS011;62291;47.554;8.504;2022-12-18T11:33:58;72.93;;;36.55;;
73938;SDS011;62291;47.554;8.504;2022-12-18T11:36:50;70.47;;;35.13;;
73938;SDS011;62291;47.554;8.504;2022-12-18T11:39:18;68.45;;;35.30;;
73938;SDS011;62291;47.554;8.504;2022-12-18T11:41:59;66.65;;;34.95;;
73938;SDS011;62291;47.554;8.504;2022-12-18T11:45:00;68.82;;;34.72;;
73938;SDS011;62291;47.554;8.504;2022-12-18T11:47:44;69.20;;;35.35;;
73938;SDS011;62291;47.554;8.504;2022-12-18T11:52:57;66.68;;;34.55;;
73938;SDS011;62291;47.554;8.504;2022-12-18T11:55:27;70.88;;;36.55;;
73938;SDS011;62291;47.554;8.504;2022-12-18T12:00:58;66.13;;;34.72;;
73938;SDS011;62291;47.554;8.504;2022-12-18T12:06:19;68.07;;;34.72;;
73938;SDS011;62291;47.554;8.504;2022-12-18T12:08:54;67.00;;;35.40;;
73938;SDS011;62291;47.554;8.504;2022-12-18T12:22:24;63.00;;;33.78;;
73938;SDS011;62291;47.554;8.504;2022-12-18T12:31:11;62.80;;;33.92;;
73938;SDS011;62291;47.554;8.504;2022-12-18T12:38:44;65.63;;;34.80;;
73938;SDS011;62291;47.554;8.504;2022-12-18T12:41:17;63.15;;;32.30;;
73938;SDS011;62291;47.554;8.504;2022-12-18T12:44:07;57.15;;;31.52;;
73938;SDS011;62291;47.554;8.504;2022-12-18T12:46:39;59.75;;;30.33;;
73938;SDS011;62291;47.554;8.504;2022-12-18T12:49:11;61.97;;;31.20;;
73938;SDS011;62291;47.554;8.504;2022-12-18T12:51:44;64.35;;;29.73;;
73938;SDS011;62291;47.554;8.504;2022-12-18T12:54:19;57.17;;;29.33;;
73938;SDS011;62291;47.554;8.504;2022-12-18T13:07:28;59.08;;;30.83;;
73938;SDS011;62291;47.554;8.504;2022-12-18T13:12:51;58.25;;;30.92;;
73938;SDS011;62291;47.554;8.504;2022-12-18T13:18:31;59.17;;;29.45;;
73938;SDS011;62291;47.554;8.504;2022-12-18T13:25:52;56.85;;;30.15;;
73938;SDS011;62291;47.554;8.504;2022-12-18T13:31:57;57.80;;;30.20;;
73938;SDS011;62291;47.554;8.504;2022-12-18T13:39:56;53.47;;;28.13;;
73938;SDS011;62291;47.554;8.504;2022-12-18T13:42:37;54.00;;;27.33;;
73938;SDS011;62291;47.554;8.504;2022-12-18T13:45:34;53.28;;;26.38;;
73938;SDS011;62291;47.554;8.504;2022-12-18T13:48:13;57.28;;;27.77;;
73938;SDS011;62291;47.554;8.504;2022-12-18T13:50:52;54.65;;;27.90;;
73938;SDS011;62291;47.554;8.504;2022-12-18T13:53:23;57.45;;;29.58;;
73938;SDS011;62291;47.554;8.504;2022-12-18T13:55:52;53.30;;;27.87;;
73938;SDS011;62291;47.554;8.504;2022-12-18T13:58:18;55.53;;;28.13;;
73938;SDS011;62291;47.554;8.504;2022-12-18T14:00:44;118.55;;;68.70;;
73938;SDS011;62291;47.554;8.504;2022-12-18T14:03:23;102.70;;;60.15;;
73938;SDS011;62291;47.554;8.504;2022-12-18T14:05:52;57.05;;;29.17;;
73938;SDS011;62291;47.554;8.504;2022-12-18T14:08:20;62.80;;;31.90;;
73938;SDS011;62291;47.554;8.504;2022-12-18T14:10:47;54.83;;;28.52;;
73938;SDS011;62291;47.554;8.504;2022-12-18T14:13:20;56.67;;;28.98;;
73938;SDS011;62291;47.554;8.504;2022-12-18T14:15:50;82.10;;;41.20;;
73938;SDS011;62291;47.554;8.504;2022-12-18T14:20:57;64.68;;;33.58;;
73938;SDS011;62291;47.554;8.504;2022-12-18T14:23:34;69.68;;;33.75;;
73938;SDS011;62291;47.554;8.504;2022-12-18T14:26:03;58.83;;;30.65;;
73938;SDS011;62291;47.554;8.504;2022-12-18T14:28:49;60.95;;;30.40;;
73938;SDS011;62291;47.554;8.504;2022-12-18T14:31:21;57.97;;;30.20;;
73938;SDS011;62291;47.554;8.504;2022-12-18T14:33:51;54.45;;;27.70;;
73938;SDS011;62291;47.554;8.504;2022-12-18T14:36:19;55.42;;;28.77;;
73938;SDS011;62291;47.554;8.504;2022-12-18T14:41:19;58.30;;;29.08;;
73938;SDS011;62291;47.554;8.504;2022-12-18T14:43:47;55.63;;;29.52;;
73938;SDS011;62291;47.554;8.504;2022-12-18T14:48:52;56.75;;;29.77;;
73938;SDS011;62291;47.554;8.504;2022-12-18T14:51:22;57.92;;;29.88;;
73938;SDS011;62291;47.554;8.504;2022-12-18T14:53:54;59.00;;;30.13;;
73938;SDS011;62291;47.554;8.504;2022-12-18T14:56:32;64.30;;;29.90;;
73938;SDS011;62291;47.554;8.504;2022-12-18T15:04:53;69.30;;;33.15;;
73938;SDS011;62291;47.554;8.504;2022-12-18T15:07:39;58.83;;;29.88;;
73938;SDS011;62291;47.554;8.504;2022-12-18T15:12:47;67.80;;;32.78;;
73938;SDS011;62291;47.554;8.504;2022-12-18T15:23:19;70.18;;;33.30;;
73938;SDS011;62291;47.554;8.504;2022-12-18T15:26:12;68.15;;;32.63;;
73938;SDS011;62291;47.554;8.504;2022-12-18T15:28:47;68.85;;;33.83;;
73938;SDS011;62291;47.554;8.504;2022-12-18T15:36:20;80.80;;;37.08;;
73938;SDS011;62291;47.554;8.504;2022-12-18T15:38:51;74.28;;;35.90;;
73938;SDS011;62291;47.554;8.504;2022-12-18T15:41:20;82.15;;;38.08;;
73938;SDS011;62291;47.554;8.504;2022-12-18T15:43:47;82.07;;;38.72;;
73938;SDS011;62291;47.554;8.504;2022-12-18T15:46:18;82.32;;;38.22;;
73938;SDS011;62291;47.554;8.504;2022-12-18T15:48:48;83.82;;;38.25;;
73938;SDS011;62291;47.554;8.504;2022-12-18T15:51:16;86.35;;;39.80;;
73938;SDS011;62291;47.554;8.504;2022-12-18T15:53:42;84.38;;;37.78;;
73938;SDS011;62291;47.554;8.504;2022-12-18T15:56:10;90.93;;;40.65;;
73938;SDS011;62291;47.554;8.504;2022-12-18T15:58:54;84.35;;;38.58;;
73938;SDS011;62291;47.554;8.504;2022-12-18T16:01:21;81.93;;;37.38;;
73938;SDS011;62291;47.554;8.504;2022-12-18T16:03:50;83.80;;;39.50;;
73938;SDS011;62291;47.554;8.504;2022-12-18T16:06:16;91.43;;;38.58;;
73938;SDS011;62291;47.554;8.504;2022-12-18T16:08:41;88.43;;;40.25;;
73938;SDS011;62291;47.554;8.504;2022-12-18T16:11:41;86.85;;;39.85;;
73938;SDS011;62291;47.554;8.504;2022-12-18T16:14:22;87.90;;;38.55;;
73938;SDS011;62291;47.554;8.504;2022-12-18T16:17:02;87.35;;;37.42;;
73938;SDS011;62291;47.554;8.504;2022-12-18T16:19:30;90.35;;;38.30;;
73938;SDS011;62291;47.554;8.504;2022-12-18T16:21:56;94.40;;;37.75;;
73938;SDS011;62291;47.554;8.504;2022-12-18T16:24:26;91.97;;;37.08;;
73938;SDS011;62291;47.554;8.504;2022-12-18T16:26:55;85.00;;;38.08;;
73938;SDS011;62291;47.554;8.504;2022-12-18T16:29:22;93.00;;;39.25;;
73938;SDS011;62291;47.554;8.504;2022-12-18T16:31:52;92.38;;;37.85;;
73938;SDS011;62291;47.554;8.504;2022-12-18T16:34:25;86.80;;;37.00;;
73938;SDS011;62291;47.554;8.504;2022-12-18T16:36:56;89.88;;;38.58;;
73938;SDS011;62291;47.554;8.504;2022-12-18T16:39:26;90.93;;;38.33;;
73938;SDS011;62291;47.554;8.504;2022-12-18T16:41:52;94.07;;;38.47;;
73938;SDS011;62291;47.554;8.504;2022-12-18T16:44:18;88.55;;;36.53;;
73938;SDS011;62291;47.554;8.504;2022-12-18T16:46:45;88.60;;;38.38;;